Time;durP1;ratioP1;P1;durP2;ratioP2;P2;SDS_P1;SDS_P2;PMS_P1;PMS_P2;Temp;Humidity;BMP_temperature;BMP_pressure;BME280_temperature;BME280_humidity;BME280_pressure;Samples;Min_cycle;Max_cycle;Signal;HPM_P1;HPM_P2
2023/09/07 00:00:05;;;;;;;14.30;12.07;;;;;;;18.05;100.00;101811.84;5026020;28;20040;-76
2023/09/07 00:02:30;;;;;;;16.95;11.70;;;;;;;17.96;100.00;101804.66;5015699;28;20485;-76
2023/09/07 00:04:56;;;;;;;14.60;11.15;;;;;;;17.95;100.00;101805.63;5028925;28;20021;-76
2023/09/07 00:07:21;;;;;;;13.70;11.35;;;;;;;17.89;100.00;101806.19;5029953;28;20450;-76
2023/09/07 00:09:46;;;;;;;13.20;10.85;;;;;;;17.88;100.00;101801.84;5028113;28;20430;-76
2023/09/07 00:12:12;;;;;;;13.45;10.50;;;;;;;17.91;100.00;101803.38;5030345;28;20056;-76
2023/09/07 00:14:37;;;;;;;15.07;10.32;;;;;;;17.83;100.00;101806.75;5031545;28;20116;-76
2023/09/07 00:17:04;;;;;;;11.27;10.15;;;;;;;17.80;100.00;101802.53;5028591;28;20029;-76
2023/09/07 00:19:32;;;;;;;12.30;10.45;;;;;;;17.81;100.00;101806.03;5027023;28;20101;-76
2023/09/07 00:21:58;;;;;;;11.38;10.30;;;;;;;17.74;100.00;101799.56;5027936;28;20884;-76
2023/09/07 00:24:23;;;;;;;11.93;10.60;;;;;;;17.74;100.00;101803.09;5039128;28;20707;-76
2023/09/07 00:26:48;;;;;;;12.68;11.10;;;;;;;17.70;100.00;101801.69;5043146;28;20033;-76
2023/09/07 00:29:14;;;;;;;11.88;10.77;;;;;;;17.67;100.00;101806.44;5031588;28;20013;-76
2023/09/07 00:31:41;;;;;;;13.40;12.00;;;;;;;17.64;100.00;101796.03;5021438;28;20518;-76
2023/09/07 00:34:06;;;;;;;12.45;11.23;;;;;;;17.62;100.00;101787.34;5022768;28;20128;-76
2023/09/07 00:36:32;;;;;;;12.65;11.43;;;;;;;17.58;100.00;101793.88;5024741;28;20116;-76
2023/09/07 00:38:57;;;;;;;14.40;11.68;;;;;;;17.51;100.00;101785.59;5047514;28;20036;-76
2023/09/07 00:41:22;;;;;;;12.82;11.57;;;;;;;17.53;100.00;101789.81;5049830;28;20025;-76
2023/09/07 00:43:48;;;;;;;13.13;11.82;;;;;;;17.54;100.00;101780.84;5049209;28;20381;-76
2023/09/07 00:46:13;;;;;;;13.85;11.57;;;;;;;17.50;100.00;101784.75;5047923;28;20119;-76
2023/09/07 00:48:39;;;;;;;14.27;12.73;;;;;;;17.48;100.00;101786.72;5047263;28;20507;-76
2023/09/07 00:51:04;;;;;;;12.95;11.80;;;;;;;17.43;100.00;101788.94;5026985;28;20623;-76
2023/09/07 00:53:30;;;;;;;14.88;12.48;;;;;;;17.40;100.00;101791.88;5025534;28;20098;-76
2023/09/07 00:55:56;;;;;;;13.60;12.25;;;;;;;17.42;100.00;101786.41;5027280;28;20117;-76
2023/09/07 00:58:21;;;;;;;14.18;12.65;;;;;;;17.40;100.00;101799.84;5009313;28;20489;-76
2023/09/07 01:00:48;;;;;;;14.68;13.27;;;;;;;17.38;100.00;101796.50;5010695;28;20026;-76
2023/09/07 01:03:14;;;;;;;17.45;13.20;;;;;;;17.34;100.00;101788.91;5027693;28;20026;-76
2023/09/07 01:06:10;;;;;;;15.50;13.07;;;;;;;17.37;100.00;101800.13;5028012;28;20432;-75
2023/09/07 01:08:42;;;;;;;15.10;13.30;;;;;;;17.28;100.00;101795.63;5029242;28;20033;-76
2023/09/07 01:11:17;;;;;;;14.85;13.25;;;;;;;17.26;100.00;101802.06;5022175;28;20030;-76
2023/09/07 01:13:43;;;;;;;17.65;13.35;;;;;;;17.21;100.00;101797.09;5035988;28;20039;-76
2023/09/07 01:16:12;;;;;;;14.98;13.38;;;;;;;17.15;100.00;101794.97;5028209;28;20021;-76
2023/09/07 01:18:40;;;;;;;15.95;14.35;;;;;;;17.13;100.00;101792.44;5028703;28;20049;-76
2023/09/07 01:21:10;;;;;;;14.98;13.57;;;;;;;17.09;100.00;101791.03;5027866;28;20040;-83
2023/09/07 01:23:39;;;;;;;15.85;14.18;;;;;;;17.08;100.00;101799.16;5029974;28;20025;-83
2023/09/07 01:26:08;;;;;;;14.85;13.15;;;;;;;17.06;100.00;101790.47;5027796;28;20469;-83
2023/09/07 01:28:34;;;;;;;14.70;13.38;;;;;;;17.05;100.00;101794.94;5029808;28;20024;-83
2023/09/07 01:31:01;;;;;;;15.50;14.07;;;;;;;17.02;100.00;101789.03;5036661;28;20036;-83
2023/09/07 01:33:26;;;;;;;15.80;14.30;;;;;;;16.98;100.00;101788.47;5016971;28;20122;-83
2023/09/07 01:35:51;;;;;;;15.98;14.57;;;;;;;16.92;100.00;101781.88;5028153;28;20109;-83
2023/09/07 01:38:17;;;;;;;15.80;14.25;;;;;;;16.93;100.00;101777.38;5038356;28;20018;-83
2023/09/07 01:40:43;;;;;;;16.00;14.27;;;;;;;16.89;100.00;101784.78;5008941;28;20034;-83
2023/09/07 01:43:08;;;;;;;15.77;14.18;;;;;;;16.85;100.00;101783.38;5042125;28;20022;-83
2023/09/07 01:45:34;;;;;;;15.98;14.27;;;;;;;16.85;100.00;101772.75;5024961;28;20032;-83
2023/09/07 01:47:59;;;;;;;17.27;14.07;;;;;;;16.83;100.00;101779.16;5023621;28;20136;-83
2023/09/07 01:50:25;;;;;;;15.73;14.18;;;;;;;16.80;100.00;101768.75;5021106;28;20024;-83
2023/09/07 01:52:51;;;;;;;15.40;13.90;;;;;;;16.81;100.00;101770.44;5047362;28;20028;-83
2023/09/07 01:55:17;;;;;;;15.55;14.15;;;;;;;16.74;100.00;101774.59;5033114;28;20470;-83
2023/09/07 01:57:43;;;;;;;15.40;13.90;;;;;;;16.72;100.00;101782.72;5029000;28;20047;-84
2023/09/07 02:00:10;;;;;;;16.63;14.57;;;;;;;16.74;100.00;101778.09;5028460;28;20049;-82
2023/09/07 02:02:35;;;;;;;15.35;13.90;;;;;;;16.67;100.00;101776.94;5020919;28;20014;-83
2023/09/07 02:05:01;;;;;;;16.55;14.48;;;;;;;16.67;100.00;101782.25;5012810;28;20892;-83
2023/09/07 02:07:26;;;;;;;16.02;14.43;;;;;;;16.69;100.00;101776.81;5023830;28;20715;-83
2023/09/07 02:09:52;;;;;;;16.13;14.63;;;;;;;16.67;100.00;101782.25;5027789;28;20036;-83
2023/09/07 02:12:17;;;;;;;14.85;13.45;;;;;;;16.65;100.00;101778.00;5026729;28;20116;-83
2023/09/07 02:14:43;;;;;;;15.95;14.45;;;;;;;16.60;100.00;101775.75;5026851;28;20068;-83
2023/09/07 02:17:08;;;;;;;16.08;14.55;;;;;;;16.56;100.00;101782.31;5042397;28;20036;-83
2023/09/07 02:19:33;;;;;;;15.45;13.85;;;;;;;16.60;100.00;101773.09;5026712;28;20049;-83
2023/09/07 02:21:59;;;;;;;16.52;14.95;;;;;;;16.59;100.00;101779.38;5028401;28;20043;-84
2023/09/07 02:24:24;;;;;;;15.00;13.55;;;;;;;16.58;100.00;101775.88;5024997;28;20036;-83
2023/09/07 02:26:50;;;;;;;16.52;14.93;;;;;;;16.51;100.00;101774.72;5027665;28;20026;-83
2023/09/07 02:29:15;;;;;;;17.52;15.20;;;;;;;16.51;100.00;101780.03;5022196;28;20045;-83
2023/09/07 02:31:44;;;;;;;16.85;15.10;;;;;;;16.50;100.00;101772.19;5026266;28;20359;-84
2023/09/07 02:34:09;;;;;;;17.45;15.63;;;;;;;16.45;100.00;101774.41;5028122;28;20026;-84
2023/09/07 02:36:35;;;;;;;17.00;15.20;;;;;;;16.44;100.00;101778.88;5025758;28;20580;-84
2023/09/07 02:39:01;;;;;;;16.50;14.80;;;;;;;16.41;100.00;101772.94;5026634;28;20773;-83
2023/09/07 02:41:27;;;;;;;17.17;15.45;;;;;;;16.43;100.00;101773.69;5028259;28;20120;-84
2023/09/07 02:43:52;;;;;;;16.98;15.38;;;;;;;16.38;100.00;101768.72;5027923;28;20574;-83
2023/09/07 02:46:17;;;;;;;17.05;15.48;;;;;;;16.35;100.00;101769.00;5028669;28;20018;-84
2023/09/07 02:48:43;;;;;;;16.35;14.77;;;;;;;16.37;100.00;101771.50;5029070;28;20572;-85
2023/09/07 02:51:08;;;;;;;17.38;15.65;;;;;;;16.30;100.00;101772.03;5026641;28;20481;-83
2023/09/07 02:53:34;;;;;;;17.13;15.55;;;;;;;16.25;100.00;101774.22;5026735;28;20029;-84
2023/09/07 02:56:01;;;;;;;16.25;14.82;;;;;;;16.29;100.00;101765.03;5014704;28;20052;-82
2023/09/07 02:58:27;;;;;;;18.13;15.95;;;;;;;16.25;100.00;101768.06;5027400;28;20060;-84
2023/09/07 03:00:53;;;;;;;20.15;18.25;;;;;;;16.30;100.00;101761.41;5027958;28;20045;-84
2023/09/07 03:03:18;;;;;;;18.60;16.77;;;;;;;16.24;100.00;101756.63;5028144;28;20033;-83
2023/09/07 03:05:44;;;;;;;18.67;16.92;;;;;;;16.28;100.00;101755.38;5025862;28;20767;-84
2023/09/07 03:08:10;;;;;;;17.17;15.57;;;;;;;16.27;100.00;101759.00;5027049;28;20096;-84
2023/09/07 03:10:37;;;;;;;18.02;16.27;;;;;;;16.24;100.00;101767.22;5025843;28;20027;-84
2023/09/07 03:13:03;;;;;;;19.63;17.58;;;;;;;16.29;100.00;101770.34;5026589;28;20038;-85
2023/09/07 03:15:29;;;;;;;18.50;16.63;;;;;;;16.28;100.00;101773.97;5027490;28;20039;-84
2023/09/07 03:17:54;;;;;;;19.40;17.50;;;;;;;16.34;100.00;101774.44;5026324;28;20025;-84
2023/09/07 03:20:19;;;;;;;19.70;17.70;;;;;;;16.41;100.00;101772.94;5026613;28;20083;-84
2023/09/07 03:22:45;;;;;;;19.92;17.90;;;;;;;16.45;100.00;101771.75;5029730;28;20420;-85
2023/09/07 03:25:11;;;;;;;18.77;16.98;;;;;;;16.50;100.00;101761.56;5029381;28;20031;-84
2023/09/07 03:27:40;;;;;;;18.92;16.80;;;;;;;16.51;100.00;101768.56;5028033;28;20025;-85
2023/09/07 03:30:07;;;;;;;18.42;16.73;;;;;;;16.51;100.00;101764.09;5028934;28;20104;-84
2023/09/07 03:32:33;;;;;;;17.50;15.73;;;;;;;16.53;100.00;101766.63;5029455;28;20060;-84
2023/09/07 03:35:00;;;;;;;16.70;15.10;;;;;;;16.52;100.00;101770.25;5029415;28;20033;-85
2023/09/07 03:37:26;;;;;;;18.73;16.33;;;;;;;16.57;100.00;101768.03;5039653;28;20051;-84
2023/09/07 03:39:52;;;;;;;18.00;16.27;;;;;;;16.58;100.00;101775.03;5052421;28;20079;-84
2023/09/07 03:42:17;;;;;;;22.58;16.00;;;;;;;16.63;100.00;101777.31;5034077;28;20025;-85
2023/09/07 03:44:43;;;;;;;19.60;15.85;;;;;;;16.64;100.00;101776.34;5033072;28;20542;-84
2023/09/07 03:47:10;;;;;;;17.73;15.90;;;;;;;16.67;100.00;101774.28;5032215;28;20045;-84
2023/09/07 03:49:35;;;;;;;17.35;15.50;;;;;;;16.69;100.00;101775.00;5039173;28;20017;-84
2023/09/07 03:52:00;;;;;;;16.20;14.57;;;;;;;16.72;100.00;101777.41;5032596;28;20613;-84
2023/09/07 03:54:26;;;;;;;17.65;14.98;;;;;;;16.71;100.00;101769.56;5025339;28;20017;-84
2023/09/07 03:56:51;;;;;;;16.75;15.13;;;;;;;16.70;100.00;101774.03;5052305;28;20053;-85
2023/09/07 03:59:17;;;;;;;16.15;14.57;;;;;;;16.70;100.00;101781.16;5034749;28;20532;-84
2023/09/07 04:01:42;;;;;;;16.88;14.85;;;;;;;16.70;100.00;101779.34;5032483;28;20492;-84
2023/09/07 04:04:10;;;;;;;16.30;14.70;;;;;;;16.64;100.00;101785.16;5019271;28;20022;-84
2023/09/07 04:06:35;;;;;;;16.17;14.57;;;;;;;16.65;100.00;101781.50;5014187;28;20044;-84
2023/09/07 04:09:01;;;;;;;17.77;14.45;;;;;;;16.62;100.00;101776.47;5031756;28;20030;-85
2023/09/07 04:11:26;;;;;;;16.17;14.57;;;;;;;16.59;100.00;101776.72;5035321;28;20032;-84
2023/09/07 04:13:51;;;;;;;16.13;14.50;;;;;;;16.57;100.00;101768.03;5049252;28;20030;-84
2023/09/07 04:16:17;;;;;;;15.38;13.73;;;;;;;16.56;100.00;101771.66;5070503;28;20018;-85
2023/09/07 04:18:44;;;;;;;16.00;14.40;;;;;;;16.47;100.00;101775.13;5053799;28;20022;-84
2023/09/07 04:21:09;;;;;;;14.40;13.10;;;;;;;16.45;100.00;101771.75;5047202;28;20010;-84
2023/09/07 04:23:35;;;;;;;21.50;13.32;;;;;;;16.42;100.00;101777.31;5055312;28;20024;-84
2023/09/07 04:26:10;;;;;;;13.82;12.20;;;;;;;16.40;100.00;101776.56;5049947;28;20041;-77
2023/09/07 04:28:36;;;;;;;14.00;12.70;;;;;;;16.29;100.00;101783.63;5052598;28;20016;-77
2023/09/07 04:31:02;;;;;;;14.38;12.88;;;;;;;16.24;100.00;101787.63;5042276;28;20045;-77
2023/09/07 04:33:34;;;;;;;16.58;13.85;;;;;;;16.15;100.00;101791.91;5053818;28;20688;-77
2023/09/07 04:36:10;;;;;;;15.47;13.97;;;;;;;16.13;100.00;101788.53;5052906;28;20044;-77
2023/09/07 04:38:35;;;;;;;15.32;13.85;;;;;;;16.06;100.00;101784.69;5055592;28;20288;-77
2023/09/07 04:41:12;;;;;;;16.67;14.00;;;;;;;16.07;100.00;101788.19;5052049;28;20044;-77
2023/09/07 04:43:45;;;;;;;15.45;13.95;;;;;;;16.05;100.00;101782.16;5036557;28;20041;-77
2023/09/07 04:46:14;;;;;;;15.57;13.95;;;;;;;15.96;100.00;101783.75;5053406;28;20014;-77
2023/09/07 04:48:43;;;;;;;13.57;12.30;;;;;;;15.98;100.00;101779.16;5053555;28;20021;-76
2023/09/07 04:51:09;;;;;;;15.13;13.43;;;;;;;15.90;100.00;101789.56;5053926;28;20014;-77
2023/09/07 04:53:36;;;;;;;15.13;13.52;;;;;;;15.86;100.00;101783.66;5054935;28;20024;-77
2023/09/07 04:56:03;;;;;;;14.73;13.23;;;;;;;15.85;100.00;101786.44;5053927;28;20044;-77
2023/09/07 04:58:29;;;;;;;14.35;13.05;;;;;;;15.86;100.00;101786.31;5054111;28;20040;-76
2023/09/07 05:01:01;;;;;;;15.02;13.25;;;;;;;15.86;100.00;101786.31;5050793;28;20013;-77
2023/09/07 05:03:26;;;;;;;16.27;12.87;;;;;;;15.84;100.00;101790.91;5051782;28;20021;-77
2023/09/07 05:05:53;;;;;;;15.13;13.52;;;;;;;15.85;100.00;101791.75;5052387;28;20040;-77
2023/09/07 05:08:18;;;;;;;14.27;12.75;;;;;;;15.77;100.00;101797.69;5054171;28;20029;-77
2023/09/07 05:10:44;;;;;;;15.73;13.35;;;;;;;15.76;100.00;101795.16;5054768;28;20086;-77
2023/09/07 05:13:09;;;;;;;15.07;12.88;;;;;;;15.75;100.00;101802.28;5053513;28;20053;-77
2023/09/07 05:15:35;;;;;;;15.07;13.10;;;;;;;15.73;100.00;101796.25;5053394;28;20154;-76
2023/09/07 05:18:00;;;;;;;15.38;12.75;;;;;;;15.70;100.00;101798.31;5051648;28;20029;-74
2023/09/07 05:20:26;;;;;;;15.55;12.90;;;;;;;15.73;100.00;101806.84;5021003;28;20041;-76
2023/09/07 05:22:52;;;;;;;14.90;13.40;;;;;;;15.64;100.00;101797.81;5028220;28;20028;-76
2023/09/07 05:25:20;;;;;;;13.32;11.93;;;;;;;15.66;100.00;101800.34;5032183;28;20060;-76
2023/09/07 05:27:48;;;;;;;16.00;13.45;;;;;;;15.65;100.00;101804.81;5022050;28;20024;-77
2023/09/07 05:30:19;;;;;;;13.73;12.13;;;;;;;15.65;100.00;101801.31;5039612;28;20026;-76
2023/09/07 05:32:45;;;;;;;13.75;12.45;;;;;;;15.66;100.00;101803.00;5031099;28;20026;-76
2023/09/07 05:35:12;;;;;;;14.40;12.43;;;;;;;15.64;100.00;101800.47;5011686;28;20026;-77
2023/09/07 05:37:40;;;;;;;15.57;13.43;;;;;;;15.68;100.00;101802.88;5012485;28;20017;-76
2023/09/07 05:40:06;;;;;;;16.27;13.73;;;;;;;15.65;100.00;101802.16;5015901;28;20032;-75
2023/09/07 05:42:31;;;;;;;17.65;13.25;;;;;;;15.68;100.00;101802.88;5013993;28;20383;-76
2023/09/07 05:44:56;;;;;;;17.33;14.68;;;;;;;15.79;100.00;101808.16;5027433;28;20201;-76
2023/09/07 05:47:22;;;;;;;17.80;14.63;;;;;;;15.88;100.00;101799.47;5011940;28;20064;-77
2023/09/07 05:49:47;;;;;;;17.00;14.02;;;;;;;15.94;100.00;101813.06;5015459;28;20108;-76
2023/09/07 05:52:16;;;;;;;19.98;13.63;;;;;;;16.00;100.00;101822.34;5012929;28;20026;-77
2023/09/07 05:54:44;;;;;;;17.17;13.57;;;;;;;16.05;100.00;101809.56;5040030;28;20107;-77
2023/09/07 05:57:10;;;;;;;19.75;13.88;;;;;;;16.13;100.00;101817.75;5032465;28;20018;-76
2023/09/07 05:59:35;;;;;;;16.23;13.43;;;;;;;16.19;100.00;101817.22;5010457;28;20109;-77
2023/09/07 06:02:00;;;;;;;19.33;13.85;;;;;;;16.32;100.00;101818.88;5009878;28;20026;-76
2023/09/07 06:04:26;;;;;;;17.75;13.73;;;;;;;16.39;100.00;101817.38;5010793;28;20053;-76
2023/09/07 06:06:51;;;;;;;15.38;13.50;;;;;;;16.49;100.00;101823.66;5022875;28;20466;-76
2023/09/07 06:09:17;;;;;;;15.65;13.20;;;;;;;16.56;100.00;101828.31;5028678;28;20482;-76
2023/09/07 06:11:42;;;;;;;21.65;13.40;;;;;;;16.64;100.00;101826.81;5030008;28;20026;-77
2023/09/07 06:14:10;;;;;;;14.70;12.88;;;;;;;16.72;100.00;101835.03;5042391;28;20025;-76
2023/09/07 06:16:35;;;;;;;13.52;12.23;;;;;;;16.76;100.00;101831.97;5026637;28;20162;-77
2023/09/07 06:19:00;;;;;;;16.65;12.75;;;;;;;16.83;100.00;101829.66;5038263;28;20316;-76
2023/09/07 06:21:26;;;;;;;14.85;13.20;;;;;;;16.87;100.00;101836.41;5039220;28;20165;-76
2023/09/07 06:23:51;;;;;;;14.25;12.52;;;;;;;16.97;100.00;101833.78;5035694;28;20381;-76
2023/09/07 06:26:17;;;;;;;14.20;12.30;;;;;;;17.02;100.00;101834.25;5029018;28;20026;-77
2023/09/07 06:28:43;;;;;;;16.27;12.15;;;;;;;17.12;100.00;101837.78;5035073;28;20067;-76
2023/09/07 06:31:08;;;;;;;14.00;11.82;;;;;;;17.16;100.00;101828.56;5032220;28;20428;-78
2023/09/07 06:33:34;;;;;;;15.00;12.20;;;;;;;17.24;100.00;101834.09;5027723;28;20084;-76
2023/09/07 06:36:02;;;;;;;13.32;11.63;;;;;;;17.37;100.00;101832.06;5026067;28;20504;-76
2023/09/07 06:38:27;;;;;;;13.18;11.50;;;;;;;17.40;100.00;101842.44;5026448;28;20490;-76
2023/09/07 06:40:53;;;;;;;12.95;11.40;;;;;;;17.52;100.00;101829.88;5025914;28;20030;-76
2023/09/07 06:43:18;;;;;;;13.30;12.00;;;;;;;17.54;100.00;101834.06;5023738;28;20021;-76
2023/09/07 06:45:44;;;;;;;12.85;11.55;;;;;;;17.66;100.00;101834.00;5025806;28;20056;-76
2023/09/07 06:48:09;;;;;;;14.27;11.65;;;;;;;17.77;100.00;101836.56;5025766;28;20128;-76
2023/09/07 06:50:35;;;;;;;13.27;11.25;;;;;;;17.85;100.00;101837.56;5026993;28;20057;-76
2023/09/07 06:53:00;;;;;;;12.43;10.73;;;;;;;17.98;100.00;101837.31;5031440;28;20757;-76
2023/09/07 06:55:25;;;;;;;16.60;11.32;;;;;;;18.11;100.00;101837.06;5033576;28;20545;-76
2023/09/07 06:57:51;;;;;;;12.10;10.60;;;;;;;18.27;98.76;101840.03;5025936;28;20029;-77
2023/09/07 07:00:16;;;;;;;13.48;9.70;;;;;;;18.38;98.29;101839.03;5031593;28;20428;-77
2023/09/07 07:02:45;;;;;;;13.80;10.70;;;;;;;18.55;95.60;101846.34;5031082;28;20080;-79
2023/09/07 07:05:10;;;;;;;10.32;9.32;;;;;;;18.67;95.14;101839.91;5028227;28;20029;-74
2023/09/07 07:07:35;;;;;;;11.52;9.55;;;;;;;18.84;95.08;101843.69;5031751;28;20029;-74
2023/09/07 07:10:01;;;;;;;12.02;10.10;;;;;;;19.01;93.93;101836.78;5030856;28;20639;-75
2023/09/07 07:12:26;;;;;;;13.48;9.65;;;;;;;19.17;93.03;101852.19;5031137;28;20113;-75
2023/09/07 07:14:52;;;;;;;10.35;9.15;;;;;;;19.30;91.50;101845.56;5032465;28;20056;-75
2023/09/07 07:17:17;;;;;;;9.55;8.35;;;;;;;19.47;90.55;101848.44;5030571;28;20104;-74
2023/09/07 07:19:43;;;;;;;10.07;9.07;;;;;;;19.65;89.36;101841.38;5031670;28;20108;-74
2023/09/07 07:22:08;;;;;;;11.52;8.65;;;;;;;19.83;87.86;101842.25;5029136;28;20048;-74
2023/09/07 07:24:34;;;;;;;12.55;8.80;;;;;;;19.99;86.52;101842.41;5048520;28;20122;-74
2023/09/07 07:27:00;;;;;;;9.07;7.72;;;;;;;20.21;85.43;101842.97;5029401;28;20030;-74
2023/09/07 07:29:25;;;;;;;10.30;7.50;;;;;;;20.38;84.16;101839.47;5031833;28;20025;-77
2023/09/07 07:31:50;;;;;;;12.93;8.00;;;;;;;20.57;83.00;101844.69;5029491;28;20025;-75
2023/09/07 07:34:16;;;;;;;11.00;7.07;;;;;;;20.73;80.93;101840.47;5028276;28;20029;-77
2023/09/07 07:36:44;;;;;;;9.63;7.00;;;;;;;20.92;80.58;101842.97;5030644;28;20112;-76
2023/09/07 07:39:09;;;;;;;7.28;6.57;;;;;;;21.06;78.22;101842.38;5030257;28;20022;-76
2023/09/07 07:41:35;;;;;;;10.77;6.40;;;;;;;21.27;77.17;101837.53;5031399;28;20025;-76
2023/09/07 07:44:01;;;;;;;6.78;5.88;;;;;;;21.44;76.36;101837.59;5035519;28;20757;-76
2023/09/07 07:46:26;;;;;;;8.57;6.00;;;;;;;21.64;76.32;101841.72;5029927;28;20071;-76
2023/09/07 07:48:52;;;;;;;11.13;5.75;;;;;;;21.87;74.88;101833.94;5030783;28;20033;-76
2023/09/07 07:51:17;;;;;;;6.47;5.22;;;;;;;22.03;73.69;101838.50;5029669;28;20025;-76
2023/09/07 07:53:43;;;;;;;6.10;5.50;;;;;;;22.15;73.58;101831.84;5030665;28;20025;-76
2023/09/07 07:56:16;;;;;;;6.75;5.10;;;;;;;22.37;71.16;101825.84;5030000;28;20029;-75
2023/09/07 07:58:45;;;;;;;9.20;5.28;;;;;;;22.55;69.39;101825.69;5029990;28;20025;-76
2023/09/07 08:01:15;;;;;;;8.43;5.00;;;;;;;22.68;69.12;101830.53;5028858;28;20113;-75
2023/09/07 08:03:40;;;;;;;10.65;5.38;;;;;;;22.80;69.00;101827.38;5030544;28;20156;-75
2023/09/07 08:06:06;;;;;;;6.70;5.30;;;;;;;22.99;68.22;101825.34;5031572;28;20029;-76
2023/09/07 08:08:34;;;;;;;6.57;5.70;;;;;;;23.17;67.15;101819.75;5029611;28;20033;-76
2023/09/07 08:11:04;;;;;;;7.22;5.05;;;;;;;23.37;67.10;101821.03;5046844;28;20055;-76
2023/09/07 08:13:30;;;;;;;9.25;5.28;;;;;;;23.51;65.73;101817.63;5030564;28;20025;-76
2023/09/07 08:15:55;;;;;;;9.30;4.97;;;;;;;23.71;66.53;101816.22;5022796;28;20033;-76
2023/09/07 08:18:23;;;;;;;6.72;5.20;;;;;;;23.81;65.78;101813.31;5011691;28;20076;-76
2023/09/07 08:20:48;;;;;;;8.65;5.38;;;;;;;24.04;64.20;101811.50;5010781;28;20486;-76
2023/09/07 08:23:14;;;;;;;7.82;4.80;;;;;;;24.22;62.97;101813.88;5026985;28;20010;-75
2023/09/07 08:25:44;;;;;;;7.38;4.82;;;;;;;24.36;62.23;101806.91;5012272;28;20022;-76
2023/09/07 08:28:10;;;;;;;6.43;4.72;;;;;;;24.57;62.74;101803.56;5016295;28;20390;-77
2023/09/07 08:30:36;;;;;;;8.77;4.70;;;;;;;24.79;61.31;101799.13;5052059;28;20025;-76
2023/09/07 08:33:13;;;;;;;6.90;4.97;;;;;;;24.82;61.56;101807.72;5041043;28;20029;-76
2023/09/07 08:35:43;;;;;;;7.45;5.18;;;;;;;24.89;61.10;101805.09;5010791;28;20022;-77
2023/09/07 08:38:22;;;;;;;7.20;4.85;;;;;;;25.03;61.23;101792.69;5009840;28;20460;-77
2023/09/07 08:40:48;;;;;;;5.72;4.57;;;;;;;25.21;60.44;101793.16;5010714;28;20029;-77
2023/09/07 08:43:14;;;;;;;6.10;4.25;;;;;;;25.38;59.56;101793.81;5008587;28;20386;-77
2023/09/07 08:45:49;;;;;;;6.18;4.30;;;;;;;25.37;59.51;101792.97;5010927;28;20547;-77
2023/09/07 08:48:17;;;;;;;6.63;4.22;;;;;;;25.44;59.70;101793.06;5008849;28;20042;-77
2023/09/07 08:50:49;;;;;;;6.57;4.25;;;;;;;25.52;58.13;101795.63;5012643;28;20037;-77
2023/09/07 08:53:16;;;;;;;5.50;3.90;;;;;;;25.69;58.10;101785.53;5009935;28;20504;-77
2023/09/07 08:55:44;;;;;;;7.68;4.40;;;;;;;25.73;57.80;101781.41;5059748;28;20123;-77
2023/09/07 08:58:10;;;;;;;6.80;4.45;;;;;;;25.85;56.38;101787.97;5049356;28;20028;-77
2023/09/07 09:00:43;;;;;;;4.93;3.88;;;;;;;25.92;56.51;101778.91;5048870;28;20029;-77
2023/09/07 09:03:11;;;;;;;5.35;3.90;;;;;;;26.17;56.23;101778.56;5049376;28;20130;-77
2023/09/07 09:05:41;;;;;;;6.82;4.22;;;;;;;26.39;54.74;101782.09;5048952;28;20020;-76
2023/09/07 09:08:06;;;;;;;7.20;4.00;;;;;;;26.46;53.93;101777.59;5041906;28;20049;-76
2023/09/07 09:10:32;;;;;;;10.48;4.28;;;;;;;26.45;53.94;101775.94;5008426;28;20026;-77
2023/09/07 09:12:59;;;;;;;5.90;3.80;;;;;;;26.61;53.44;101786.44;5008596;28;20175;-77
2023/09/07 09:15:27;;;;;;;10.32;4.15;;;;;;;26.67;53.00;101785.66;5009117;28;20022;-77
2023/09/07 09:17:53;;;;;;;6.22;3.70;;;;;;;26.76;53.26;101789.03;5010356;28;20037;-76
2023/09/07 09:20:26;;;;;;;14.13;4.70;;;;;;;26.72;53.02;101787.75;5010730;28;20448;-77
2023/09/07 09:22:53;;;;;;;5.68;3.63;;;;;;;26.69;53.57;101777.34;5010744;28;20029;-77
2023/09/07 09:25:18;;;;;;;5.55;4.45;;;;;;;26.76;51.80;101775.53;5008155;28;20028;-76
2023/09/07 09:27:44;;;;;;;7.38;4.22;;;;;;;26.98;50.80;101770.91;5029924;28;20029;-77
2023/09/07 09:30:10;;;;;;;5.45;3.88;;;;;;;27.23;51.08;101769.41;5047855;28;20029;-77
2023/09/07 09:32:35;;;;;;;5.55;4.03;;;;;;;27.20;50.59;101775.19;5050065;28;20033;-77
2023/09/07 09:35:05;;;;;;;4.78;3.65;;;;;;;27.25;52.30;101772.75;5049875;28;20317;-76
2023/09/07 09:37:31;;;;;;;5.45;4.05;;;;;;;27.41;50.58;101766.97;5050324;28;20025;-73
2023/09/07 09:39:59;;;;;;;7.80;3.58;;;;;;;27.41;51.11;101764.28;5047669;28;20075;-75
2023/09/07 09:42:25;;;;;;;7.43;3.80;;;;;;;27.60;49.87;101757.25;5036473;28;20018;-74
2023/09/07 09:44:54;;;;;;;6.10;3.78;;;;;;;27.65;50.26;101757.53;5029488;28;20037;-76
2023/09/07 09:47:21;;;;;;;6.25;3.97;;;;;;;27.63;49.87;101761.50;5016856;28;20070;-75
2023/09/07 09:49:48;;;;;;;6.05;3.55;;;;;;;27.69;49.95;101763.38;5020077;28;20029;-75
2023/09/07 09:52:17;;;;;;;7.85;3.70;;;;;;;27.70;48.29;101759.63;5019294;28;20051;-74
2023/09/07 09:54:43;;;;;;;5.50;3.88;;;;;;;27.77;49.32;101755.06;5033962;28;20024;-74
2023/09/07 09:57:09;;;;;;;5.15;3.60;;;;;;;27.77;49.75;101755.06;5042132;28;20021;-74
2023/09/07 09:59:34;;;;;;;4.72;3.85;;;;;;;27.89;48.17;101753.41;5026337;28;20037;-74
2023/09/07 10:02:02;;;;;;;6.43;3.80;;;;;;;27.93;47.75;101761.97;5040263;28;20099;-75
2023/09/07 10:04:29;;;;;;;4.47;3.40;;;;;;;27.89;47.57;101766.13;5047342;28;20021;-75
2023/09/07 10:06:58;;;;;;;6.43;3.55;;;;;;;27.93;47.82;101756.53;5047652;28;20016;-76
2023/09/07 10:09:23;;;;;;;4.40;3.65;;;;;;;27.94;48.34;101750.94;5048259;28;20029;-76
2023/09/07 10:11:59;;;;;;;4.35;3.53;;;;;;;28.04;47.92;101756.78;5047423;28;20535;-76
2023/09/07 10:14:25;;;;;;;6.15;3.60;;;;;;;28.10;48.05;101747.00;5048466;28;20029;-76
2023/09/07 10:16:55;;;;;;;6.03;3.95;;;;;;;28.23;47.88;101744.31;5029509;28;20038;-76
2023/09/07 10:19:24;;;;;;;4.43;3.40;;;;;;;28.31;47.04;101751.41;5049457;28;20103;-75
2023/09/07 10:21:52;;;;;;;5.72;3.53;;;;;;;28.46;48.18;101748.50;5048376;28;20179;-76
2023/09/07 10:24:28;;;;;;;9.02;3.85;;;;;;;28.46;47.75;101746.63;5048872;28;20029;-75
2023/09/07 10:27:03;;;;;;;4.35;3.20;;;;;;;28.39;47.57;101745.78;5051217;28;20112;-76
2023/09/07 10:29:28;;;;;;;6.68;3.75;;;;;;;28.38;46.75;101736.81;5052124;28;20028;-76
2023/09/07 10:31:54;;;;;;;6.18;3.40;;;;;;;28.47;46.37;101737.47;5042050;28;20028;-75
2023/09/07 10:34:20;;;;;;;6.95;3.50;;;;;;;28.57;46.47;101740.56;5050320;28;20055;-76
2023/09/07 10:36:46;;;;;;;7.97;3.40;;;;;;;28.69;45.22;101747.00;5052421;28;20111;-76
2023/09/07 10:39:12;;;;;;;4.57;3.10;;;;;;;28.77;45.40;101740.53;5053076;28;20410;-76
2023/09/07 10:41:45;;;;;;;6.55;3.30;;;;;;;28.89;45.82;101735.34;5052630;28;20017;-76
2023/09/07 10:44:12;;;;;;;4.82;3.17;;;;;;;29.04;44.47;101730.47;5041821;28;20033;-76
2023/09/07 10:46:43;;;;;;;7.80;3.50;;;;;;;29.11;44.84;101723.16;5037320;28;20052;-76
2023/09/07 10:49:11;;;;;;;5.88;3.30;;;;;;;29.24;45.01;101719.56;5027091;28;20396;-76
2023/09/07 10:51:45;;;;;;;4.57;3.70;;;;;;;29.31;43.90;101721.19;5049332;28;20048;-75
2023/09/07 10:54:18;;;;;;;4.72;3.38;;;;;;;29.30;44.68;101724.97;5052247;28;20086;-75
2023/09/07 10:56:45;;;;;;;6.30;3.65;;;;;;;29.33;44.42;101710.13;5051634;28;20016;-75
2023/09/07 10:59:13;;;;;;;6.15;3.60;;;;;;;29.49;44.95;101711.53;5050528;28;20029;-76
2023/09/07 11:01:38;;;;;;;8.10;3.22;;;;;;;29.60;44.04;101705.41;5039269;28;20465;-76
2023/09/07 11:04:05;;;;;;;4.45;3.45;;;;;;;29.59;44.37;101709.16;5032256;28;20028;-76
2023/09/07 11:06:30;;;;;;;6.80;3.22;;;;;;;29.43;44.01;101712.38;5039287;28;20342;-75